Time;durP1;ratioP1;P1;durP2;ratioP2;P2;SDS_P1;SDS_P2;PMS_P1;PMS_P2;Temp;Humidity;BMP_temperature;BMP_pressure;BME280_temperature;BME280_humidity;BME280_pressure;Samples;Min_cycle;Max_cycle;Signal;HPM_P1;HPM_P2
2021/12/24 05:01:33;;;;;;;8.20;6.10;;;6.50;99.90;;;;;;5556555;23;20529;-72
2021/12/24 05:04:03;;;;;;;7.53;6.07;;;6.50;99.90;;;;;;4956986;29;20456;-72
2021/12/24 05:06:35;;;;;;;12.83;6.27;;;6.50;99.90;;;;;;4956919;29;20460;-72
2021/12/24 05:09:07;;;;;;;10.27;7.00;;;6.50;99.90;;;;;;4956632;29;20515;-71
2021/12/24 05:11:37;;;;;;;10.57;7.27;;;6.50;99.90;;;;;;4956618;29;20527;-71
2021/12/24 05:14:04;;;;;;;8.93;7.00;;;6.50;99.90;;;;;;4989871;23;20936;-72
2021/12/24 05:16:43;;;;;;;10.93;7.07;;;6.50;99.90;;;;;;4975577;28;20543;-72
2021/12/24 05:21:55;;;;;;;8.30;5.83;;;6.60;99.90;;;;;;4975890;28;20432;-73
2021/12/24 05:24:26;;;;;;;11.60;6.60;;;6.50;99.90;;;;;;4962194;28;20559;-73
2021/12/24 05:26:55;;;;;;;8.33;6.07;;;6.50;99.90;;;;;;4956760;28;20467;-72
2021/12/24 05:29:22;;;;;;;10.00;7.03;;;6.60;99.90;;;;;;4956311;28;20456;-72
2021/12/24 05:31:51;;;;;;;12.20;7.77;;;6.60;99.90;;;;;;4956272;29;20544;-72
2021/12/24 05:34:18;;;;;;;10.73;7.80;;;6.60;99.90;;;;;;4956182;28;20596;-72
2021/12/24 05:36:46;;;;;;;9.70;7.40;;;6.60;99.90;;;;;;4956171;28;20448;-72
2021/12/24 05:39:14;;;;;;;9.83;6.70;;;6.60;99.90;;;;;;4955746;28;20909;-72
2021/12/24 05:41:41;;;;;;;12.50;7.10;;;6.70;99.90;;;;;;4956460;28;20459;-72
2021/12/24 05:44:10;;;;;;;8.37;7.10;;;6.70;99.90;;;;;;4956154;28;20464;-72
2021/12/24 05:46:37;;;;;;;11.63;6.60;;;6.80;99.90;;;;;;4956154;28;20457;-72
2021/12/24 05:49:06;;;;;;;9.67;6.30;;;6.80;99.90;;;;;;4955799;29;20540;-72
2021/12/24 05:51:33;;;;;;;11.03;7.20;;;6.70;99.90;;;;;;4955704;28;20552;-72
2021/12/24 05:54:00;;;;;;;8.10;5.83;;;6.80;99.90;;;;;;4955775;28;20496;-72
2021/12/24 05:56:27;;;;;;;7.80;5.60;;;6.80;99.90;;;;;;4955957;28;20456;-72
2021/12/24 05:58:54;;;;;;;7.00;5.87;;;6.80;99.90;;;;;;4955758;29;20479;-72
2021/12/24 06:01:23;;;;;;;7.10;5.30;;;6.90;99.90;;;;;;4955901;28;20541;-72
2021/12/24 06:03:50;;;;;;;6.17;5.33;;;6.90;99.90;;;;;;4955698;28;20473;-72
2021/12/24 06:06:19;;;;;;;8.00;5.83;;;6.90;99.90;;;;;;4955632;28;20937;-72
2021/12/24 06:08:46;;;;;;;8.63;5.93;;;7.00;99.90;;;;;;4955853;28;20901;-72
2021/12/24 06:11:13;;;;;;;10.60;5.50;;;7.00;99.90;;;;;;4951385;28;20477;-72
2021/12/24 06:13:40;;;;;;;7.40;5.50;;;7.10;99.90;;;;;;4941244;29;20493;-72
2021/12/24 06:16:09;;;;;;;6.40;5.30;;;7.10;99.90;;;;;;4936380;29;20485;-72
2021/12/24 06:18:39;;;;;;;6.77;5.00;;;7.10;99.90;;;;;;4936229;29;20521;-72
2021/12/24 06:21:06;;;;;;;7.43;4.67;;;7.10;99.90;;;;;;4936441;29;20464;-72
2021/12/24 06:23:36;;;;;;;8.20;5.20;;;7.20;99.90;;;;;;4936149;29;20915;-72
2021/12/24 06:26:03;;;;;;;8.07;5.03;;;7.20;99.90;;;;;;4936666;29;20453;-72
2021/12/24 06:28:30;;;;;;;5.93;5.17;;;7.20;99.90;;;;;;4936228;29;20470;-72
2021/12/24 06:30:57;;;;;;;12.17;5.63;;;7.20;99.90;;;;;;4935969;29;20533;-73
2021/12/24 06:33:25;;;;;;;5.90;4.80;;;7.20;99.90;;;;;;4935877;29;20550;-72
2021/12/24 06:35:54;;;;;;;7.10;5.90;;;7.20;99.90;;;;;;4936340;29;20536;-65
2021/12/24 06:38:21;;;;;;;8.73;5.17;;;7.20;99.90;;;;;;4936091;29;20454;-66
2021/12/24 06:40:50;;;;;;;12.60;5.83;;;7.30;99.90;;;;;;4935917;29;20464;-72
2021/12/24 06:43:17;;;;;;;9.80;6.33;;;7.30;99.90;;;;;;4936221;29;20478;-72
2021/12/24 06:45:46;;;;;;;7.33;5.50;;;7.30;99.90;;;;;;4936718;29;20536;-73
2021/12/24 06:48:14;;;;;;;10.63;7.10;;;7.30;99.90;;;;;;4951139;28;20457;-73
2021/12/24 06:50:41;;;;;;;8.47;6.23;;;7.30;99.90;;;;;;4949360;28;21032;-74
2021/12/24 06:53:07;;;;;;;8.90;6.77;;;7.30;99.90;;;;;;4945158;28;20483;-78
2021/12/24 06:55:36;;;;;;;8.10;6.43;;;7.30;99.90;;;;;;4954701;28;20587;-72
2021/12/24 06:58:04;;;;;;;7.40;5.73;;;7.30;99.90;;;;;;4962150;28;20456;-72
2021/12/24 07:00:31;;;;;;;9.33;6.63;;;7.30;99.90;;;;;;4947794;28;20964;-72
2021/12/24 07:02:58;;;;;;;9.23;5.83;;;7.30;99.90;;;;;;4965891;28;20444;-73
2021/12/24 07:05:26;;;;;;;7.80;5.67;;;7.30;99.90;;;;;;4958728;28;20445;-72
2021/12/24 07:07:53;;;;;;;8.17;6.30;;;7.40;99.90;;;;;;4957892;28;21039;-72
2021/12/24 07:10:20;;;;;;;9.40;6.57;;;7.40;99.90;;;;;;4965937;28;20456;-72
2021/12/24 07:12:47;;;;;;;8.27;6.47;;;7.40;99.90;;;;;;4973543;28;20543;-72
2021/12/24 07:15:16;;;;;;;8.37;5.77;;;7.40;99.90;;;;;;4956172;28;20543;-72
2021/12/24 07:17:43;;;;;;;9.20;5.70;;;7.40;99.90;;;;;;4972294;28;20940;-73
2021/12/24 07:20:11;;;;;;;5.33;4.77;;;7.50;99.90;;;;;;4973656;28;20593;-73
2021/12/24 07:22:37;;;;;;;7.03;5.10;;;7.50;99.90;;;;;;4973266;28;20483;-73
2021/12/24 07:25:06;;;;;;;5.67;5.07;;;7.50;99.90;;;;;;4972637;28;21055;-72
2021/12/24 07:27:33;;;;;;;9.07;5.27;;;7.50;99.90;;;;;;4972519;28;20491;-72
2021/12/24 07:30:00;;;;;;;8.47;5.67;;;7.50;99.90;;;;;;4963373;28;20543;-72
2021/12/24 07:32:28;;;;;;;7.73;5.60;;;7.50;99.90;;;;;;4958252;28;20543;-72
2021/12/24 07:34:55;;;;;;;7.23;5.00;;;7.50;99.90;;;;;;4960646;28;20596;-73
2021/12/24 07:37:22;;;;;;;7.23;5.37;;;7.50;99.90;;;;;;4956431;28;20536;-74
2021/12/24 07:39:49;;;;;;;6.90;5.50;;;7.50;99.90;;;;;;4950010;28;20539;-72
2021/12/24 07:42:16;;;;;;;8.03;5.97;;;7.50;99.90;;;;;;4953697;28;20460;-73
2021/12/24 07:44:42;;;;;;;8.10;6.23;;;7.50;99.90;;;;;;4967851;28;20468;-73
2021/12/24 07:47:16;;;;;;;9.30;5.90;;;7.50;99.90;;;;;;4953322;29;20491;-73
2021/12/24 07:49:45;;;;;;;7.00;5.73;;;7.50;99.90;;;;;;4948181;29;20453;-72
2021/12/24 07:52:13;;;;;;;7.30;6.20;;;7.50;99.90;;;;;;4941225;29;20537;-72
2021/12/24 07:54:42;;;;;;;7.33;6.13;;;7.50;99.90;;;;;;4940866;29;20495;-73
2021/12/24 07:57:10;;;;;;;7.10;5.60;;;7.50;99.90;;;;;;4943518;29;21175;-72
2021/12/24 07:59:38;;;;;;;12.20;7.00;;;7.40;99.90;;;;;;4947073;28;20548;-71
2021/12/24 08:02:09;;;;;;;11.07;6.87;;;7.40;99.90;;;;;;4944755;29;20946;-74
2021/12/24 08:04:38;;;;;;;9.33;6.70;;;7.40;99.90;;;;;;4941833;28;20470;-74
2021/12/24 08:07:07;;;;;;;9.97;7.87;;;7.50;99.90;;;;;;4943850;28;20952;-75
2021/12/24 08:09:36;;;;;;;9.43;7.50;;;7.40;99.90;;;;;;4948626;28;20538;-76
2021/12/24 08:12:04;;;;;;;7.47;6.10;;;7.50;99.90;;;;;;4949807;28;20448;-74
2021/12/24 08:14:31;;;;;;;10.23;7.43;;;7.40;99.90;;;;;;4951375;28;20488;-75
2021/12/24 08:16:58;;;;;;;8.20;7.10;;;7.50;99.90;;;;;;4954203;28;20480;-74
2021/12/24 08:19:25;;;;;;;8.77;6.93;;;7.50;99.90;;;;;;4946238;28;20535;-74
2021/12/24 08:21:52;;;;;;;10.70;7.00;;;7.50;99.90;;;;;;4951108;28;20444;-74
2021/12/24 08:24:21;;;;;;;9.93;7.30;;;7.50;99.90;;;;;;4957628;28;20556;-74
2021/12/24 08:26:48;;;;;;;9.20;7.90;;;7.60;99.90;;;;;;4966428;28;20892;-74
2021/12/24 08:29:15;;;;;;;9.63;7.70;;;7.60;99.90;;;;;;4957062;28;20569;-74
2021/12/24 08:31:42;;;;;;;10.43;8.00;;;7.60;99.90;;;;;;4955044;28;20453;-74
2021/12/24 08:34:10;;;;;;;12.00;8.77;;;7.60;99.90;;;;;;4954807;28;20556;-74
2021/12/24 08:36:37;;;;;;;10.97;7.97;;;7.60;99.90;;;;;;4968604;28;20563;-74
2021/12/24 08:39:05;;;;;;;8.17;6.60;;;7.60;99.90;;;;;;4956324;28;20901;-74
2021/12/24 08:41:34;;;;;;;13.70;7.97;;;7.60;99.90;;;;;;4965929;28;20535;-74
2021/12/24 08:44:01;;;;;;;9.60;6.97;;;7.60;99.90;;;;;;4963575;28;20570;-73
2021/12/24 08:46:28;;;;;;;8.63;6.83;;;7.60;99.90;;;;;;4958401;28;20453;-74
2021/12/24 08:48:55;;;;;;;8.63;7.20;;;7.60;99.90;;;;;;4968798;28;20455;-74
2021/12/24 08:51:22;;;;;;;9.80;7.20;;;7.60;99.90;;;;;;4953120;28;20476;-74
2021/12/24 08:53:49;;;;;;;10.63;7.27;;;7.60;99.90;;;;;;4952726;28;20548;-73
2021/12/24 08:56:16;;;;;;;9.77;7.30;;;7.70;99.90;;;;;;4951684;28;20510;-74
2021/12/24 08:58:44;;;;;;;11.00;7.80;;;7.60;99.90;;;;;;4951824;28;21016;-74
2021/12/24 09:01:12;;;;;;;10.50;7.00;;;7.70;99.90;;;;;;4951869;28;20535;-73
2021/12/24 09:03:39;;;;;;;9.70;7.17;;;7.80;99.90;;;;;;4951880;28;20528;-75
2021/12/24 09:06:06;;;;;;;9.33;7.40;;;7.70;99.90;;;;;;4952050;28;20495;-74
2021/12/24 09:08:34;;;;;;;8.03;6.93;;;7.80;99.90;;;;;;4951915;28;20540;-75
2021/12/24 09:11:01;;;;;;;10.30;6.80;;;7.80;99.90;;;;;;4954085;28;20461;-76
2021/12/24 09:13:29;;;;;;;12.73;7.47;;;7.80;99.90;;;;;;4945522;28;20480;-75
2021/12/24 09:15:57;;;;;;;12.37;7.47;;;7.90;99.90;;;;;;4953954;29;21382;-75
2021/12/24 09:18:24;;;;;;;9.70;7.37;;;7.90;99.90;;;;;;4956796;28;20448;-75
2021/12/24 09:20:53;;;;;;;11.27;8.43;;;7.80;99.90;;;;;;4956400;28;20459;-74
2021/12/24 09:23:19;;;;;;;16.50;10.00;;;7.80;99.90;;;;;;4963007;28;20479;-75
2021/12/24 09:25:46;;;;;;;14.83;10.00;;;7.90;99.90;;;;;;4967698;28;20544;-75
2021/12/24 09:28:13;;;;;;;15.73;10.63;;;7.90;99.90;;;;;;4975625;28;20895;-75
2021/12/24 09:30:41;;;;;;;17.17;10.70;;;7.90;99.90;;;;;;4975690;28;20459;-75
2021/12/24 09:33:09;;;;;;;15.80;10.20;;;7.90;99.90;;;;;;4975579;28;20558;-75
2021/12/24 09:35:36;;;;;;;13.90;9.83;;;8.00;99.90;;;;;;4954527;28;20492;-75
2021/12/24 09:38:03;;;;;;;15.33;10.07;;;8.00;99.90;;;;;;4956141;29;20895;-75
2021/12/24 09:40:33;;;;;;;11.90;9.00;;;8.00;99.90;;;;;;4955255;29;20512;-74
2021/12/24 09:43:01;;;;;;;14.37;8.73;;;8.10;99.90;;;;;;4956148;28;20541;-72
2021/12/24 09:45:28;;;;;;;12.77;8.50;;;8.10;99.90;;;;;;4956351;28;20527;-74
2021/12/24 09:47:55;;;;;;;11.27;7.70;;;8.10;99.90;;;;;;4955882;28;20531;-74
2021/12/24 09:50:26;;;;;;;11.40;7.50;;;8.10;99.90;;;;;;4946726;29;20523;-74
2021/12/24 09:52:53;;;;;;;11.90;7.70;;;8.10;99.90;;;;;;4943647;29;20234;-75
2021/12/24 09:55:22;;;;;;;11.80;7.53;;;8.20;99.90;;;;;;4952882;28;20576;-78
2021/12/24 09:57:53;;;;;;;13.07;8.33;;;8.20;99.90;;;;;;4956147;28;20481;-73
2021/12/24 10:00:23;;;;;;;12.53;8.17;;;8.20;99.90;;;;;;4956064;29;20471;-75
2021/12/24 10:02:52;;;;;;;13.37;8.60;;;8.10;99.90;;;;;;4955378;29;20544;-75
2021/12/24 10:05:34;;;;;;;14.10;9.73;;;8.10;99.90;;;;;;4955168;28;21024;-76
2021/12/24 10:08:10;;;;;;;16.00;10.00;;;8.00;99.90;;;;;;4954131;28;20496;-77
2021/12/24 10:10:41;;;;;;;15.10;10.47;;;8.00;99.90;;;;;;4963674;28;20484;-76
2021/12/24 10:13:31;;;;;;;15.63;10.30;;;8.10;99.90;;;;;;4973747;28;20483;-76
2021/12/24 10:16:01;;;;;;;15.07;10.73;;;8.10;99.90;;;;;;4973837;28;20582;-76
2021/12/24 10:18:34;;;;;;;13.27;9.80;;;8.10;99.90;;;;;;4973734;28;20915;-76
2021/12/24 10:21:06;;;;;;;13.10;9.63;;;8.10;99.90;;;;;;4973821;28;20897;-75
2021/12/24 10:23:52;;;;;;;12.80;9.33;;;8.20;99.90;;;;;;4973942;28;20559;-75
2021/12/24 10:26:22;;;;;;;12.43;9.10;;;8.20;99.90;;;;;;4974653;28;20881;-74
2021/12/24 10:28:55;;;;;;;14.40;8.43;;;8.20;99.90;;;;;;4973484;28;21003;-76
2021/12/24 10:31:24;;;;;;;15.43;9.77;;;8.10;99.90;;;;;;4974824;28;20467;-75
2021/12/24 10:34:22;;;;;;;13.30;9.93;;;8.10;99.90;;;;;;4974322;28;20563;-75
2021/12/24 10:37:05;;;;;;;13.82;10.50;;;8.00;99.90;;;;;;4973638;28;20550;-75
2021/12/24 10:39:43;;;;;;;14.03;9.60;;;8.20;99.90;;;;;;4974163;28;20765;-75
2021/12/24 10:42:14;;;;;;;13.17;9.47;;;8.20;99.90;;;;;;4964854;28;20544;-76
2021/12/24 10:44:44;;;;;;;12.03;8.70;;;8.10;99.90;;;;;;4972727;28;20550;-77
2021/12/24 10:47:15;;;;;;;17.20;9.87;;;8.00;99.90;;;;;;4974514;28;20506;-76
2021/12/24 10:50:05;;;;;;;16.43;11.23;;;8.00;99.90;;;;;;4973956;28;20448;-76
2021/12/24 10:55:37;;;;;;;21.33;11.93;;;8.20;99.90;;;;;;4974079;28;20227;-77
2021/12/24 10:58:06;;;;;;;15.43;11.10;;;8.20;99.90;;;;;;4974195;28;20452;-76
2021/12/24 11:00:41;;;;;;;14.53;10.27;;;8.20;99.90;;;;;;4941305;28;20537;-78
2021/12/24 11:03:10;;;;;;;15.47;10.20;;;8.10;99.90;;;;;;4952648;28;20476;-76
2021/12/24 11:05:40;;;;;;;18.87;11.57;;;8.20;99.90;;;;;;4954997;29;20536;-76
2021/12/24 11:08:10;;;;;;;13.33;9.70;;;8.10;99.90;;;;;;4954875;29;20531;-76
2021/12/24 11:10:39;;;;;;;12.10;9.37;;;8.20;99.90;;;;;;4955093;28;20535;-81
2021/12/24 11:15:36;;;;;;;12.20;9.07;;;8.20;99.90;;;;;;4971993;28;20843;-76
2021/12/24 11:18:05;;;;;;;13.67;9.80;;;8.20;99.90;;;;;;4973581;28;20487;-75
2021/12/24 11:20:46;;;;;;;20.17;11.30;;;8.20;99.90;;;;;;4968778;28;20539;-73
2021/12/24 11:23:16;;;;;;;16.40;9.77;;;8.20;99.90;;;;;;4970654;28;20480;-73
2021/12/24 11:25:46;;;;;;;12.40;8.67;;;8.10;99.90;;;;;;4973015;28;20531;-75
2021/12/24 11:28:14;;;;;;;13.90;9.80;;;8.20;99.90;;;;;;4973447;28;20522;-75
2021/12/24 11:30:45;;;;;;;11.57;8.67;;;8.20;99.90;;;;;;4973088;28;20484;-75
2021/12/24 11:33:15;;;;;;;15.00;9.20;;;8.20;99.90;;;;;;4972788;28;20535;-75
2021/12/24 11:35:43;;;;;;;15.07;10.17;;;8.10;99.90;;;;;;4973637;28;20503;-75
2021/12/24 11:38:16;;;;;;;13.90;9.30;;;8.20;99.90;;;;;;4973579;28;20483;-74
2021/12/24 11:40:45;;;;;;;12.00;8.47;;;8.20;99.90;;;;;;4973314;28;20491;-74
2021/12/24 11:43:12;;;;;;;13.63;9.50;;;8.20;99.90;;;;;;4973468;28;20490;-75
2021/12/24 11:45:39;;;;;;;13.87;10.07;;;8.30;99.90;;;;;;4973223;28;20840;-74
2021/12/24 11:48:06;;;;;;;16.97;9.93;;;8.30;99.90;;;;;;4973283;28;21015;-74
2021/12/24 11:50:35;;;;;;;16.23;10.40;;;8.30;99.90;;;;;;4973186;28;20448;-74
2021/12/24 11:53:08;;;;;;;16.00;10.13;;;8.30;99.90;;;;;;4972624;28;20460;-74
2021/12/24 11:55:39;;;;;;;15.67;10.20;;;8.30;99.90;;;;;;4973082;28;20907;-74
2021/12/24 11:58:10;;;;;;;14.80;10.97;;;8.40;99.90;;;;;;4973127;28;20527;-74
2021/12/24 12:00:39;;;;;;;16.10;9.30;;;8.40;99.90;;;;;;4972882;28;20875;-74
2021/12/24 12:03:06;;;;;;;15.23;10.50;;;8.40;99.90;;;;;;4973074;28;20857;-75
2021/12/24 12:05:34;;;;;;;11.60;9.90;;;8.50;99.90;;;;;;4973116;28;20539;-75
2021/12/24 12:08:39;;;;;;;18.30;10.50;;;8.50;99.90;;;;;;4972995;28;20986;-75
2021/12/24 12:11:26;;;;;;;19.97;10.90;;;8.50;99.90;;;;;;4933571;28;20467;-75
2021/12/24 12:13:56;;;;;;;14.40;10.80;;;8.50;99.90;;;;;;4972968;28;20534;-75
2021/12/24 12:16:25;;;;;;;12.23;9.37;;;8.50;99.90;;;;;;4973175;28;20901;-75
2021/12/24 12:19:10;;;;;;;15.60;11.33;;;8.50;99.90;;;;;;4972833;28;20451;-75
2021/12/24 12:21:40;;;;;;;16.60;10.93;;;8.40;99.90;;;;;;4971598;28;20464;-76
2021/12/24 12:26:54;;;;;;;18.60;13.50;;;8.50;99.90;;;;;;4939510;28;20448;-78
2021/12/24 12:29:31;;;;;;;18.40;13.03;;;8.50;99.90;;;;;;4972338;28;20498;-75
2021/12/24 12:32:24;;;;;;;22.13;15.60;;;8.50;99.90;;;;;;4972491;28;20460;-74
2021/12/24 12:35:00;;;;;;;21.30;14.90;;;8.60;99.90;;;;;;4972864;28;20471;-74
2021/12/24 12:37:29;;;;;;;19.13;13.10;;;8.60;99.90;;;;;;4971814;28;21101;-74
2021/12/24 12:39:58;;;;;;;16.93;12.20;;;8.50;99.90;;;;;;4972343;28;20488;-74
2021/12/24 12:43:19;;;;;;;18.63;12.80;;;8.50;99.90;;;;;;4972910;28;20535;-74
2021/12/24 12:46:03;;;;;;;17.63;13.10;;;8.50;99.90;;;;;;4914475;29;20482;-74
2021/12/24 12:48:50;;;;;;;20.60;13.97;;;8.40;99.90;;;;;;4916484;29;20521;-74
2021/12/24 12:51:19;;;;;;;17.40;11.60;;;8.30;99.90;;;;;;4957873;28;20826;-74
2021/12/24 12:53:47;;;;;;;15.97;11.10;;;8.40;99.90;;;;;;4976367;28;21002;-74
2021/12/24 12:56:22;;;;;;;19.90;11.70;;;8.40;99.90;;;;;;4976222;28;20941;-74
2021/12/24 12:58:57;;;;;;;18.33;11.80;;;8.40;99.90;;;;;;4975069;28;20690;-74
2021/12/24 13:01:24;;;;;;;16.53;12.13;;;8.40;99.90;;;;;;4976315;28;21022;-74
2021/12/24 13:04:11;;;;;;;17.17;11.20;;;8.50;99.90;;;;;;4976228;28;20515;-74
2021/12/24 13:06:53;;;;;;;13.27;10.10;;;8.50;99.90;;;;;;4976197;28;20452;-75
2021/12/24 13:09:28;;;;;;;13.27;9.10;;;8.60;99.90;;;;;;4975719;28;20550;-75
2021/12/24 13:11:56;;;;;;;11.40;8.50;;;8.60;99.90;;;;;;4976251;28;20459;-75
2021/12/24 13:14:26;;;;;;;15.13;10.60;;;8.60;99.90;;;;;;4974476;28;20574;-75
2021/12/24 13:17:06;;;;;;;18.80;11.77;;;8.60;99.90;;;;;;4974984;28;20534;-75
2021/12/24 13:19:58;;;;;;;19.90;12.40;;;8.60;99.90;;;;;;4974586;28;20456;-75
2021/12/24 13:22:28;;;;;;;14.63;11.63;;;8.50;99.90;;;;;;4974061;28;20438;-75
2021/12/24 13:24:59;;;;;;;12.50;9.87;;;8.60;99.90;;;;;;4955070;29;20237;-75
2021/12/24 13:27:28;;;;;;;16.00;11.10;;;8.60;99.90;;;;;;4968385;28;20459;-75
2021/12/24 13:30:08;;;;;;;16.43;13.00;;;8.60;99.90;;;;;;4965644;28;20513;-75
2021/12/24 13:32:39;;;;;;;13.57;11.00;;;8.50;99.90;;;;;;4964415;28;20885;-75
2021/12/24 13:35:06;;;;;;;14.07;10.80;;;8.50;99.90;;;;;;4973157;28;20486;-75
2021/12/24 13:37:34;;;;;;;13.77;9.97;;;8.50;99.90;;;;;;4973973;28;20498;-75
2021/12/24 13:40:01;;;;;;;18.73;10.70;;;8.50;99.90;;;;;;4972750;28;20548;-75
2021/12/24 13:42:28;;;;;;;17.00;12.13;;;8.40;99.90;;;;;;4972455;28;20458;-75
2021/12/24 13:45:03;;;;;;;17.80;12.97;;;8.50;99.90;;;;;;4973502;28;20515;-75
2021/12/24 13:47:50;;;;;;;17.03;12.73;;;8.50;99.90;;;;;;4973825;28;20514;-75
2021/12/24 13:54:31;;;;;;;14.48;11.50;;;8.50;99.90;;;;;;4972771;28;20459;-75
2021/12/24 13:56:01;;;;;;;11.93;9.83;;;8.80;99.90;;;;;;4973514;28;20502;-76
2021/12/24 13:58:28;;;;;;;12.80;9.43;;;8.70;99.90;;;;;;4973646;28;20891;-76
2021/12/24 14:00:58;;;;;;;12.67;8.73;;;8.70;99.90;;;;;;4974480;28;20534;-75
2021/12/24 14:03:28;;;;;;;30.20;23.10;;;8.70;99.90;;;;;;4974885;28;20538;-75
2021/12/24 14:05:57;;;;;;;35.37;26.83;;;8.60;99.90;;;;;;4974913;28;20543;-75
2021/12/24 14:08:26;;;;;;;19.10;16.87;;;8.60;99.90;;;;;;4975127;28;20543;-75
2021/12/24 14:11:07;;;;;;;17.00;13.40;;;8.60;99.90;;;;;;4974841;28;20483;-75
2021/12/24 14:13:39;;;;;;;14.27;11.27;;;8.70;99.90;;;;;;4974664;28;20475;-76
2021/12/24 14:16:33;;;;;;;16.03;11.30;;;8.60;99.90;;;;;;4974883;28;21026;-75
2021/12/24 14:19:16;;;;;;;17.07;13.10;;;8.70;99.90;;;;;;4974619;28;20518;-75
2021/12/24 14:21:46;;;;;;;13.70;9.97;;;8.60;99.90;;;;;;4974874;28;20967;-76
2021/12/24 14:24:19;;;;;;;16.90;12.00;;;8.60;99.90;;;;;;4974598;28;20550;-74
2021/12/24 14:26:48;;;;;;;17.10;11.57;;;8.60;99.90;;;;;;4974695;28;21016;-75
2021/12/24 14:29:29;;;;;;;15.30;11.43;;;8.60;99.90;;;;;;4974519;28;20518;-75
2021/12/24 14:31:57;;;;;;;18.23;12.40;;;8.60;99.90;;;;;;4974129;28;20934;-74
2021/12/24 14:34:38;;;;;;;16.00;12.03;;;8.60;99.90;;;;;;4974334;28;20564;-74
2021/12/24 14:37:07;;;;;;;16.93;11.90;;;8.60;99.90;;;;;;4974381;28;20487;-75
2021/12/24 14:39:36;;;;;;;17.37;12.10;;;8.60;99.90;;;;;;4973848;28;20459;-75
2021/12/24 14:42:26;;;;;;;14.70;11.77;;;8.60;99.90;;;;;;4974043;28;20897;-75
2021/12/24 14:44:55;;;;;;;21.27;15.20;;;8.60;99.90;;;;;;4967342;28;20555;-74
2021/12/24 14:47:27;;;;;;;18.87;13.60;;;8.70;99.90;;;;;;4974153;28;20460;-79
2021/12/24 14:50:05;;;;;;;17.77;12.17;;;8.60;99.90;;;;;;4973733;28;20452;-75
2021/12/24 14:52:32;;;;;;;14.30;12.60;;;8.70;99.90;;;;;;4974345;28;20522;-75
2021/12/24 14:55:21;;;;;;;32.10;18.37;;;8.70;99.90;;;;;;4974127;28;20604;-74
2021/12/24 14:57:57;;;;;;;35.90;20.90;;;8.70;99.90;;;;;;4968536;28;20554;-74
2021/12/24 15:00:36;;;;;;;33.13;18.13;;;8.60;99.90;;;;;;4974082;28;20483;-74
2021/12/24 15:03:06;;;;;;;23.10;15.33;;;8.60;99.90;;;;;;4973944;28;20487;-65
2021/12/24 15:05:37;;;;;;;17.67;12.80;;;8.70;99.90;;;;;;4974256;28;20949;-65
2021/12/24 15:08:22;;;;;;;21.67;14.37;;;8.60;99.90;;;;;;4973765;28;20491;-65
2021/12/24 15:11:17;;;;;;;26.00;14.20;;;8.70;99.90;;;;;;4972191;28;20491;-74
2021/12/24 15:13:47;;;;;;;17.80;11.70;;;8.60;99.90;;;;;;4928996;28;21094;-74
2021/12/24 15:16:17;;;;;;;18.43;12.50;;;8.60;99.90;;;;;;4973334;28;20534;-77
2021/12/24 15:18:45;;;;;;;17.70;12.37;;;8.60;99.90;;;;;;4973407;28;21011;-73
2021/12/24 15:21:13;;;;;;;30.93;19.40;;;8.60;99.90;;;;;;4973283;28;20487;-74
2021/12/24 15:23:40;;;;;;;32.70;18.90;;;8.60;99.90;;;;;;4973538;28;20559;-74
2021/12/24 15:26:07;;;;;;;33.13;19.27;;;8.60;99.90;;;;;;4973730;28;20499;-74
2021/12/24 15:28:39;;;;;;;35.17;21.30;;;8.60;99.90;;;;;;4973552;28;20502;-74
2021/12/24 15:31:09;;;;;;;33.50;22.20;;;8.60;99.90;;;;;;4973478;28;20492;-74
2021/12/24 15:33:36;;;;;;;34.10;22.20;;;8.60;99.90;;;;;;4973385;28;20444;-74
2021/12/24 15:36:04;;;;;;;29.30;21.07;;;8.60;99.90;;;;;;4973468;28;20850;-74
2021/12/24 15:38:33;;;;;;;29.73;20.67;;;8.60;99.90;;;;;;4973369;28;20535;-74
2021/12/24 15:41:00;;;;;;;25.50;17.77;;;8.60;99.90;;;;;;4973130;28;20448;-74
2021/12/24 15:43:27;;;;;;;29.00;19.27;;;8.60;99.90;;;;;;4973456;28;20864;-73
2021/12/24 15:45:55;;;;;;;27.30;19.33;;;8.60;99.90;;;;;;4973572;28;20448;-74
2021/12/24 15:48:23;;;;;;;25.90;17.77;;;8.60;99.90;;;;;;4973290;28;20991;-73
2021/12/24 15:50:51;;;;;;;24.60;17.80;;;8.60;99.90;;;;;;4973076;28;20452;-76
2021/12/24 15:53:18;;;;;;;21.63;15.70;;;8.60;99.90;;;;;;4973628;28;20464;-68
2021/12/24 15:55:47;;;;;;;22.37;15.07;;;8.60;99.90;;;;;;4966019;28;20472;-74
2021/12/24 15:58:14;;;;;;;16.17;12.60;;;8.60;99.90;;;;;;4953786;28;20503;-74
2021/12/24 16:00:44;;;;;;;25.47;18.13;;;8.60;99.90;;;;;;4953792;29;20539;-74
2021/12/24 16:03:11;;;;;;;21.70;16.43;;;8.60;99.90;;;;;;4953623;29;20836;-74
2021/12/24 16:05:39;;;;;;;31.33;22.37;;;8.60;99.90;;;;;;4953285;28;20520;-73
2021/12/24 16:08:06;;;;;;;26.30;18.63;;;8.60;99.90;;;;;;4953167;29;20573;-73
2021/12/24 16:10:34;;;;;;;35.77;24.10;;;8.60;99.90;;;;;;4953011;28;20485;-73
2021/12/24 16:13:02;;;;;;;41.30;27.70;;;8.60;99.90;;;;;;4953662;28;21396;-73
2021/12/24 16:15:30;;;;;;;31.53;22.73;;;8.60;99.90;;;;;;4953521;29;20575;-72
2021/12/24 16:17:57;;;;;;;40.60;27.73;;;8.60;99.90;;;;;;4955092;29;20548;-73
2021/12/24 16:20:25;;;;;;;28.03;21.93;;;8.60;99.90;;;;;;4954708;28;20492;-73
2021/12/24 16:22:52;;;;;;;23.37;18.33;;;8.60;99.90;;;;;;4957237;28;20460;-73
2021/12/24 16:25:19;;;;;;;43.40;29.03;;;8.60;99.90;;;;;;4957601;28;20479;-73
2021/12/24 16:27:46;;;;;;;31.57;22.20;;;8.50;99.90;;;;;;4958060;28;20891;-73
2021/12/24 16:30:17;;;;;;;39.53;26.53;;;8.60;99.90;;;;;;4976706;28;20490;-73
2021/12/24 16:32:46;;;;;;;32.60;22.63;;;8.50;99.90;;;;;;4975984;28;20542;-73
2021/12/24 16:35:16;;;;;;;45.23;28.07;;;8.50;99.90;;;;;;4976637;28;20566;-73
2021/12/24 16:37:43;;;;;;;36.40;24.27;;;8.50;99.90;;;;;;4976422;28;20479;-74
2021/12/24 16:40:12;;;;;;;43.00;27.80;;;8.50;99.90;;;;;;4967510;28;20535;-75
2021/12/24 16:42:41;;;;;;;44.90;25.23;;;8.50;99.90;;;;;;4976815;28;20464;-75
2021/12/24 16:45:09;;;;;;;40.00;26.43;;;8.50;99.90;;;;;;4961640;28;20854;-73
2021/12/24 16:47:37;;;;;;;42.30;26.87;;;8.50;99.90;;;;;;4957107;29;21040;-73
2021/12/24 16:50:06;;;;;;;41.50;26.77;;;8.60;99.90;;;;;;4959063;28;20583;-73
2021/12/24 16:52:33;;;;;;;49.67;29.60;;;8.50;99.90;;;;;;4969573;28;20465;-73
2021/12/24 16:55:00;;;;;;;44.90;27.80;;;8.60;99.90;;;;;;4957101;28;20519;-74
2021/12/24 16:57:27;;;;;;;40.83;25.93;;;8.50;99.90;;;;;;4956936;29;20589;-73
2021/12/24 16:59:54;;;;;;;36.07;25.37;;;8.50;99.90;;;;;;4960383;28;20792;-74
2021/12/24 17:02:21;;;;;;;34.50;24.37;;;8.50;99.90;;;;;;4976094;28;20490;-74
2021/12/24 17:04:50;;;;;;;41.33;26.27;;;8.50;99.90;;;;;;4976195;28;20476;-76
2021/12/24 17:07:16;;;;;;;48.50;28.57;;;8.50;99.90;;;;;;4976621;28;20510;-80
2021/12/24 17:09:43;;;;;;;38.97;25.90;;;8.50;99.90;;;;;;4969563;28;20487;-80
2021/12/24 17:12:13;;;;;;;36.00;25.53;;;8.50;99.90;;;;;;4969066;28;20451;-79
2021/12/24 17:14:42;;;;;;;39.70;25.03;;;8.50;99.90;;;;;;5008271;23;20511;-77
2021/12/24 17:17:10;;;;;;;42.27;27.40;;;8.50;99.90;;;;;;4970233;28;20498;-77
2021/12/24 17:19:37;;;;;;;45.73;28.57;;;8.50;99.90;;;;;;4965968;28;20535;-82
2021/12/24 17:22:06;;;;;;;53.80;33.00;;;8.50;99.90;;;;;;4960220;29;20495;-83
2021/12/24 17:24:33;;;;;;;59.73;36.10;;;8.40;99.90;;;;;;4960861;29;20500;-76
2021/12/24 17:27:04;;;;;;;61.33;35.57;;;8.40;99.90;;;;;;4957433;28;20567;-75
2021/12/24 17:29:31;;;;;;;67.80;39.47;;;8.40;99.90;;;;;;4955497;29;20513;-82
2021/12/24 17:31:58;;;;;;;57.70;37.17;;;8.40;99.90;;;;;;4956563;28;20879;-74
2021/12/24 17:34:26;;;;;;;56.77;34.07;;;8.40;99.90;;;;;;4956885;28;20513;-73
2021/12/24 17:36:53;;;;;;;44.60;29.80;;;8.40;99.90;;;;;;4956339;28;20543;-72
2021/12/24 17:39:21;;;;;;;49.10;30.70;;;8.40;99.90;;;;;;4956174;28;20484;-73
2021/12/24 17:41:49;;;;;;;46.20;30.23;;;8.40;99.90;;;;;;4956403;28;20456;-76
2021/12/24 17:44:17;;;;;;;50.37;31.17;;;8.40;99.90;;;;;;4956004;29;20504;-73
2021/12/24 17:46:44;;;;;;;47.77;29.53;;;8.40;99.90;;;;;;4955912;29;20484;-73
2021/12/24 17:49:12;;;;;;;43.60;29.97;;;8.40;99.90;;;;;;4956412;28;20968;-74
2021/12/24 17:51:41;;;;;;;49.77;31.00;;;8.40;99.90;;;;;;4956380;29;20453;-74
2021/12/24 17:54:08;;;;;;;52.23;31.73;;;8.40;99.90;;;;;;4956033;29;20516;-75
2021/12/24 17:56:38;;;;;;;48.70;30.80;;;8.30;99.90;;;;;;4955980;29;20467;-75
2021/12/24 17:59:05;;;;;;;52.43;33.20;;;8.40;99.90;;;;;;4956057;29;20567;-75
2021/12/24 18:01:32;;;;;;;53.87;34.37;;;8.30;99.90;;;;;;4956111;28;20644;-74
2021/12/24 18:03:59;;;;;;;62.57;34.77;;;8.40;99.90;;;;;;4956269;28;20564;-77
2021/12/24 18:06:26;;;;;;;53.00;38.08;;;8.30;99.90;;;;;;4954925;28;20534;-77
2021/12/24 18:08:54;;;;;;;51.27;32.63;;;8.50;99.90;;;;;;4955112;28;20619;-75
2021/12/24 18:11:21;;;;;;;45.83;31.83;;;8.60;99.90;;;;;;4955586;29;20460;-77
2021/12/24 18:13:50;;;;;;;44.80;29.47;;;8.60;99.90;;;;;;4955730;29;20456;-76